Cameley, United Kingdom
Current Conditions -  °F | °C
As of 4:20 AM on Monday 26 Jan 2015 (Local Time) from EGGD Reporting Station
Light Rain Light Rain  
Wind Chill: 40°   Ceiling: 500
Heat Index: 46°   Visibility: 5mi
Dew Point: 45°   Wind: 14mph
Humidity: 93%   Direction: 250°WSW
Pressure: 30.21"   Gusts: NA
Location:  51.32°N, 2.56°W
Report Text: EGGD 260420Z 25012KT 8000 -RA BKN005 08/07 Q1023
Loading
Personal Weather Stations






























Interactive Weather Map New forecast layout! Learn more

10-Day Weather Forecast

Advertisements
Track Severe Weather on mobile